sensor_id;sensor_type;location;lat;lon;timestamp;temperature;humidity
12303;DHT22;6214;48.012;7.862;2023-01-08T00:02:20;7.60;99.90
12303;DHT22;6214;48.012;7.862;2023-01-08T00:04:47;7.70;99.90
12303;DHT22;6214;48.012;7.862;2023-01-08T00:07:14;7.80;99.90
12303;DHT22;6214;48.012;7.862;2023-01-08T00:09:41;7.70;99.90
12303;DHT22;6214;48.012;7.862;2023-01-08T00:12:09;7.80;99.90
12303;DHT22;6214;48.012;7.862;2023-01-08T00:14:36;7.80;99.90
12303;DHT22;6214;48.012;7.862;2023-01-08T00:17:03;7.70;99.90
12303;DHT22;6214;48.012;7.862;2023-01-08T00:19:30;7.70;99.90
12303;DHT22;6214;48.012;7.862;2023-01-08T00:21:57;7.80;99.90
12303;DHT22;6214;48.012;7.862;2023-01-08T00:24:23;7.70;99.90
12303;DHT22;6214;48.012;7.862;2023-01-08T00:26:50;7.80;99.90
12303;DHT22;6214;48.012;7.862;2023-01-08T00:29:17;7.90;99.90
12303;DHT22;6214;48.012;7.862;2023-01-08T00:31:44;7.80;99.90
12303;DHT22;6214;48.012;7.862;2023-01-08T00:34:11;7.90;99.90
12303;DHT22;6214;48.012;7.862;2023-01-08T00:36:38;8.00;99.90
12303;DHT22;6214;48.012;7.862;2023-01-08T00:39:05;8.00;99.90
12303;DHT22;6214;48.012;7.862;2023-01-08T00:41:32;8.10;99.90
12303;DHT22;6214;48.012;7.862;2023-01-08T00:43:59;8.20;99.90
12303;DHT22;6214;48.012;7.862;2023-01-08T00:46:26;8.30;99.90
12303;DHT22;6214;48.012;7.862;2023-01-08T00:48:53;8.40;99.90
12303;DHT22;6214;48.012;7.862;2023-01-08T00:51:20;8.50;99.90
12303;DHT22;6214;48.012;7.862;2023-01-08T00:53:47;8.80;99.90
12303;DHT22;6214;48.012;7.862;2023-01-08T00:56:14;8.80;99.90
12303;DHT22;6214;48.012;7.862;2023-01-08T00:58:41;9.00;99.90
12303;DHT22;6214;48.012;7.862;2023-01-08T01:01:10;9.10;99.90
12303;DHT22;6214;48.012;7.862;2023-01-08T01:03:38;9.10;99.90
12303;DHT22;6214;48.012;7.862;2023-01-08T01:06:05;9.20;99.90
12303;DHT22;6214;48.012;7.862;2023-01-08T01:08:33;9.20;99.90
12303;DHT22;6214;48.012;7.862;2023-01-08T01:11:05;9.30;99.90
12303;DHT22;6214;48.012;7.862;2023-01-08T01:13:32;9.30;99.90
12303;DHT22;6214;48.012;7.862;2023-01-08T01:16:01;9.40;99.90
12303;DHT22;6214;48.012;7.862;2023-01-08T01:18:30;9.50;99.90
12303;DHT22;6214;48.012;7.862;2023-01-08T01:20:57;9.40;99.90
12303;DHT22;6214;48.012;7.862;2023-01-08T01:23:24;9.40;99.90
12303;DHT22;6214;48.012;7.862;2023-01-08T01:25:51;9.50;99.90
12303;DHT22;6214;48.012;7.862;2023-01-08T01:28:20;9.60;99.90
12303;DHT22;6214;48.012;7.862;2023-01-08T01:30:52;9.60;99.90
12303;DHT22;6214;48.012;7.862;2023-01-08T01:33:20;9.60;99.90
12303;DHT22;6214;48.012;7.862;2023-01-08T01:35:47;9.70;99.90
12303;DHT22;6214;48.012;7.862;2023-01-08T01:38:13;9.60;99.90
12303;DHT22;6214;48.012;7.862;2023-01-08T01:40:42;9.60;99.90
12303;DHT22;6214;48.012;7.862;2023-01-08T01:43:12;9.50;99.90
12303;DHT22;6214;48.012;7.862;2023-01-08T01:45:40;9.40;99.90
12303;DHT22;6214;48.012;7.862;2023-01-08T01:48:12;9.40;99.90
12303;DHT22;6214;48.012;7.862;2023-01-08T01:50:43;9.50;99.90
12303;DHT22;6214;48.012;7.862;2023-01-08T01:53:33;9.60;99.90
12303;DHT22;6214;48.012;7.862;2023-01-08T01:56:02;9.60;99.90
12303;DHT22;6214;48.012;7.862;2023-01-08T01:58:31;9.60;99.90
12303;DHT22;6214;48.012;7.862;2023-01-08T02:01:01;9.60;99.90
12303;DHT22;6214;48.012;7.862;2023-01-08T02:03:32;9.60;99.90
12303;DHT22;6214;48.012;7.862;2023-01-08T02:06:15;9.70;99.90
12303;DHT22;6214;48.012;7.862;2023-01-08T02:11:46;9.80;99.90
12303;DHT22;6214;48.012;7.862;2023-01-08T02:16:57;9.70;99.90
12303;DHT22;6214;48.012;7.862;2023-01-08T02:19:45;9.70;99.90
12303;DHT22;6214;48.012;7.862;2023-01-08T02:25:13;9.70;99.90
12303;DHT22;6214;48.012;7.862;2023-01-08T02:27:45;9.90;99.90
12303;DHT22;6214;48.012;7.862;2023-01-08T02:30:14;10.10;99.90
12303;DHT22;6214;48.012;7.862;2023-01-08T02:32:42;10.20;99.90
12303;DHT22;6214;48.012;7.862;2023-01-08T02:35:09;10.20;99.90
12303;DHT22;6214;48.012;7.862;2023-01-08T02:37:37;10.30;99.90
12303;DHT22;6214;48.012;7.862;2023-01-08T02:43:00;10.40;99.90
12303;DHT22;6214;48.012;7.862;2023-01-08T02:45:58;10.50;99.90
12303;DHT22;6214;48.012;7.862;2023-01-08T02:48:44;10.50;99.90
12303;DHT22;6214;48.012;7.862;2023-01-08T02:51:23;10.40;99.90
12303;DHT22;6214;48.012;7.862;2023-01-08T02:53:56;10.50;99.90
12303;DHT22;6214;48.012;7.862;2023-01-08T02:56:29;10.40;99.90
12303;DHT22;6214;48.012;7.862;2023-01-08T02:58:58;10.60;99.90
12303;DHT22;6214;48.012;7.862;2023-01-08T03:01:27;10.60;99.90
12303;DHT22;6214;48.012;7.862;2023-01-08T03:04:02;10.70;99.90
12303;DHT22;6214;48.012;7.862;2023-01-08T03:06:30;10.80;99.90
12303;DHT22;6214;48.012;7.862;2023-01-08T03:08:59;10.70;99.90
12303;DHT22;6214;48.012;7.862;2023-01-08T03:11:30;10.90;99.90
12303;DHT22;6214;48.012;7.862;2023-01-08T03:14:11;10.90;99.90
12303;DHT22;6214;48.012;7.862;2023-01-08T03:19:15;11.00;99.90
12303;DHT22;6214;48.012;7.862;2023-01-08T03:21:45;11.10;99.90
12303;DHT22;6214;48.012;7.862;2023-01-08T03:24:16;11.10;99.90
12303;DHT22;6214;48.012;7.862;2023-01-08T03:26:44;11.00;99.90
12303;DHT22;6214;48.012;7.862;2023-01-08T03:29:14;10.90;99.90
12303;DHT22;6214;48.012;7.862;2023-01-08T03:31:43;11.00;99.90
12303;DHT22;6214;48.012;7.862;2023-01-08T03:34:13;11.00;99.90
12303;DHT22;6214;48.012;7.862;2023-01-08T03:36:44;10.90;99.90
12303;DHT22;6214;48.012;7.862;2023-01-08T03:39:46;10.90;99.90
12303;DHT22;6214;48.012;7.862;2023-01-08T03:42:16;10.60;99.90
12303;DHT22;6214;48.012;7.862;2023-01-08T03:44:44;10.40;99.90
12303;DHT22;6214;48.012;7.862;2023-01-08T03:47:11;10.50;99.90
12303;DHT22;6214;48.012;7.862;2023-01-08T03:49:39;10.60;99.90
12303;DHT22;6214;48.012;7.862;2023-01-08T03:52:07;10.60;99.90
12303;DHT22;6214;48.012;7.862;2023-01-08T03:54:35;10.50;99.90
12303;DHT22;6214;48.012;7.862;2023-01-08T03:57:02;10.40;99.90
12303;DHT22;6214;48.012;7.862;2023-01-08T03:59:29;10.30;99.90
12303;DHT22;6214;48.012;7.862;2023-01-08T04:01:56;10.20;99.90
12303;DHT22;6214;48.012;7.862;2023-01-08T04:04:23;10.00;99.90
12303;DHT22;6214;48.012;7.862;2023-01-08T04:06:51;10.00;99.90
12303;DHT22;6214;48.012;7.862;2023-01-08T04:09:18;9.90;99.90
12303;DHT22;6214;48.012;7.862;2023-01-08T04:11:45;10.00;99.90
12303;DHT22;6214;48.012;7.862;2023-01-08T04:14:12;9.90;99.90
12303;DHT22;6214;48.012;7.862;2023-01-08T04:16:39;9.90;99.90
12303;DHT22;6214;48.012;7.862;2023-01-08T04:19:05;10.00;99.90
12303;DHT22;6214;48.012;7.862;2023-01-08T04:21:32;10.00;99.90
12303;DHT22;6214;48.012;7.862;2023-01-08T04:23:59;10.00;99.90
12303;DHT22;6214;48.012;7.862;2023-01-08T04:26:26;9.90;99.90
12303;DHT22;6214;48.012;7.862;2023-01-08T04:28:52;10.00;99.90
12303;DHT22;6214;48.012;7.862;2023-01-08T04:31:19;10.00;99.90
12303;DHT22;6214;48.012;7.862;2023-01-08T04:33:46;9.90;99.90
12303;DHT22;6214;48.012;7.862;2023-01-08T04:36:13;9.80;99.90
12303;DHT22;6214;48.012;7.862;2023-01-08T04:38:41;9.70;99.90
12303;DHT22;6214;48.012;7.862;2023-01-08T04:41:07;9.70;99.90
12303;DHT22;6214;48.012;7.862;2023-01-08T04:43:34;9.80;99.90
12303;DHT22;6214;48.012;7.862;2023-01-08T04:46:03;9.80;99.90
12303;DHT22;6214;48.012;7.862;2023-01-08T04:48:30;9.90;99.90
12303;DHT22;6214;48.012;7.862;2023-01-08T04:50:58;9.90;99.90
12303;DHT22;6214;48.012;7.862;2023-01-08T04:53:26;9.90;99.90
12303;DHT22;6214;48.012;7.862;2023-01-08T04:55:53;10.00;99.90
12303;DHT22;6214;48.012;7.862;2023-01-08T04:58:20;10.00;99.90
12303;DHT22;6214;48.012;7.862;2023-01-08T05:00:47;10.00;99.90
12303;DHT22;6214;48.012;7.862;2023-01-08T05:03:13;10.00;99.90
12303;DHT22;6214;48.012;7.862;2023-01-08T05:05:40;10.10;99.90
12303;DHT22;6214;48.012;7.862;2023-01-08T05:08:07;10.20;99.90
12303;DHT22;6214;48.012;7.862;2023-01-08T05:10:34;10.00;99.90
12303;DHT22;6214;48.012;7.862;2023-01-08T05:13:01;10.00;99.90
12303;DHT22;6214;48.012;7.862;2023-01-08T05:15:28;10.00;99.90
12303;DHT22;6214;48.012;7.862;2023-01-08T05:18:03;10.00;99.90
12303;DHT22;6214;48.012;7.862;2023-01-08T05:20:31;10.00;99.90
12303;DHT22;6214;48.012;7.862;2023-01-08T05:22:58;10.10;99.90
12303;DHT22;6214;48.012;7.862;2023-01-08T05:25:24;10.10;99.90
12303;DHT22;6214;48.012;7.862;2023-01-08T05:27:52;10.20;99.90
12303;DHT22;6214;48.012;7.862;2023-01-08T05:30:19;10.10;99.90
12303;DHT22;6214;48.012;7.862;2023-01-08T05:32:45;10.10;99.90
12303;DHT22;6214;48.012;7.862;2023-01-08T05:35:12;10.10;99.90
12303;DHT22;6214;48.012;7.862;2023-01-08T05:37:39;10.00;99.90
12303;DHT22;6214;48.012;7.862;2023-01-08T05:40:06;10.00;99.90
12303;DHT22;6214;48.012;7.862;2023-01-08T05:42:34;10.10;99.90
12303;DHT22;6214;48.012;7.862;2023-01-08T05:45:05;10.20;99.90
12303;DHT22;6214;48.012;7.862;2023-01-08T05:47:33;10.20;99.90
12303;DHT22;6214;48.012;7.862;2023-01-08T05:50:00;10.20;99.90
12303;DHT22;6214;48.012;7.862;2023-01-08T05:52:28;10.20;99.90
12303;DHT22;6214;48.012;7.862;2023-01-08T05:54:55;10.30;99.90
12303;DHT22;6214;48.012;7.862;2023-01-08T05:57:22;10.30;99.90
12303;DHT22;6214;48.012;7.862;2023-01-08T05:59:49;10.30;99.90
12303;DHT22;6214;48.012;7.862;2023-01-08T06:02:16;10.20;99.90
12303;DHT22;6214;48.012;7.862;2023-01-08T06:04:43;10.20;99.90
12303;DHT22;6214;48.012;7.862;2023-01-08T06:07:09;10.20;99.90
12303;DHT22;6214;48.012;7.862;2023-01-08T06:09:36;10.20;99.90
12303;DHT22;6214;48.012;7.862;2023-01-08T06:12:03;10.30;99.90
12303;DHT22;6214;48.012;7.862;2023-01-08T06:14:30;10.30;99.90
12303;DHT22;6214;48.012;7.862;2023-01-08T06:16:57;10.30;99.90
12303;DHT22;6214;48.012;7.862;2023-01-08T06:19:24;10.40;99.90
12303;DHT22;6214;48.012;7.862;2023-01-08T06:21:51;10.50;99.90
12303;DHT22;6214;48.012;7.862;2023-01-08T06:24:18;10.40;99.90
12303;DHT22;6214;48.012;7.862;2023-01-08T06:26:45;10.50;99.90
12303;DHT22;6214;48.012;7.862;2023-01-08T06:29:12;10.50;99.90
12303;DHT22;6214;48.012;7.862;2023-01-08T06:31:39;10.50;99.90
12303;DHT22;6214;48.012;7.862;2023-01-08T06:34:06;10.60;99.90
12303;DHT22;6214;48.012;7.862;2023-01-08T06:36:32;10.50;99.90
12303;DHT22;6214;48.012;7.862;2023-01-08T06:38:59;10.60;99.90
12303;DHT22;6214;48.012;7.862;2023-01-08T06:41:26;10.60;99.90
12303;DHT22;6214;48.012;7.862;2023-01-08T06:43:53;10.70;99.90
12303;DHT22;6214;48.012;7.862;2023-01-08T06:46:19;10.50;99.90
12303;DHT22;6214;48.012;7.862;2023-01-08T06:48:46;10.50;99.90
12303;DHT22;6214;48.012;7.862;2023-01-08T06:51:13;10.50;99.90
12303;DHT22;6214;48.012;7.862;2023-01-08T06:53:40;10.50;99.90
12303;DHT22;6214;48.012;7.862;2023-01-08T06:56:07;10.50;99.90
12303;DHT22;6214;48.012;7.862;2023-01-08T06:58:37;10.50;99.90
12303;DHT22;6214;48.012;7.862;2023-01-08T07:01:04;10.40;99.90
12303;DHT22;6214;48.012;7.862;2023-01-08T07:03:31;10.40;99.90
12303;DHT22;6214;48.012;7.862;2023-01-08T07:06:01;10.40;99.90
12303;DHT22;6214;48.012;7.862;2023-01-08T07:08:28;10.30;99.90
12303;DHT22;6214;48.012;7.862;2023-01-08T07:10:55;10.30;99.90
12303;DHT22;6214;48.012;7.862;2023-01-08T07:13:22;10.30;99.90
12303;DHT22;6214;48.012;7.862;2023-01-08T07:15:49;10.30;99.90
12303;DHT22;6214;48.012;7.862;2023-01-08T07:18:16;10.40;99.90
12303;DHT22;6214;48.012;7.862;2023-01-08T07:20:43;10.30;99.90
12303;DHT22;6214;48.012;7.862;2023-01-08T07:23:10;10.30;99.90
12303;DHT22;6214;48.012;7.862;2023-01-08T07:25:37;10.40;99.90
12303;DHT22;6214;48.012;7.862;2023-01-08T07:28:05;10.40;99.90
12303;DHT22;6214;48.012;7.862;2023-01-08T07:30:32;10.40;99.90
12303;DHT22;6214;48.012;7.862;2023-01-08T07:33:00;10.40;99.90
12303;DHT22;6214;48.012;7.862;2023-01-08T07:35:27;10.30;99.90
12303;DHT22;6214;48.012;7.862;2023-01-08T07:37:55;10.40;99.90
12303;DHT22;6214;48.012;7.862;2023-01-08T07:40:22;10.40;99.90
12303;DHT22;6214;48.012;7.862;2023-01-08T07:42:59;10.40;99.90
12303;DHT22;6214;48.012;7.862;2023-01-08T07:45:27;10.40;99.90
12303;DHT22;6214;48.012;7.862;2023-01-08T07:47:58;10.40;99.90
12303;DHT22;6214;48.012;7.862;2023-01-08T07:50:25;10.50;99.90
12303;DHT22;6214;48.012;7.862;2023-01-08T07:52:56;10.50;99.90
12303;DHT22;6214;48.012;7.862;2023-01-08T07:55:23;10.40;99.90
12303;DHT22;6214;48.012;7.862;2023-01-08T07:57:50;10.40;99.90
12303;DHT22;6214;48.012;7.862;2023-01-08T08:00:17;10.50;99.90
12303;DHT22;6214;48.012;7.862;2023-01-08T08:02:44;10.60;99.90
12303;DHT22;6214;48.012;7.862;2023-01-08T08:05:11;10.70;99.90
12303;DHT22;6214;48.012;7.862;2023-01-08T08:07:38;10.70;99.90
12303;DHT22;6214;48.012;7.862;2023-01-08T08:10:05;10.70;99.90
12303;DHT22;6214;48.012;7.862;2023-01-08T08:12:32;10.70;99.90
12303;DHT22;6214;48.012;7.862;2023-01-08T08:14:58;10.80;99.90
12303;DHT22;6214;48.012;7.862;2023-01-08T08:17:25;10.70;99.90
12303;DHT22;6214;48.012;7.862;2023-01-08T08:19:52;10.80;99.90
12303;DHT22;6214;48.012;7.862;2023-01-08T08:22:19;10.70;99.90
12303;DHT22;6214;48.012;7.862;2023-01-08T08:24:46;10.80;99.90
12303;DHT22;6214;48.012;7.862;2023-01-08T08:27:13;10.90;99.90
12303;DHT22;6214;48.012;7.862;2023-01-08T08:29:39;11.00;99.90
12303;DHT22;6214;48.012;7.862;2023-01-08T08:32:06;11.10;99.90
12303;DHT22;6214;48.012;7.862;2023-01-08T08:34:33;11.10;99.90
12303;DHT22;6214;48.012;7.862;2023-01-08T08:37:00;11.20;99.90
12303;DHT22;6214;48.012;7.862;2023-01-08T08:39:26;11.20;99.90
12303;DHT22;6214;48.012;7.862;2023-01-08T08:41:53;11.20;99.90
12303;DHT22;6214;48.012;7.862;2023-01-08T08:44:20;11.30;99.90
12303;DHT22;6214;48.012;7.862;2023-01-08T08:46:47;11.20;99.90
12303;DHT22;6214;48.012;7.862;2023-01-08T08:49:13;11.30;99.90
12303;DHT22;6214;48.012;7.862;2023-01-08T08:51:40;11.30;99.90
12303;DHT22;6214;48.012;7.862;2023-01-08T08:54:08;11.30;99.90
12303;DHT22;6214;48.012;7.862;2023-01-08T08:56:35;11.30;99.90
12303;DHT22;6214;48.012;7.862;2023-01-08T08:59:02;11.20;99.90
12303;DHT22;6214;48.012;7.862;2023-01-08T09:01:29;11.10;99.90
12303;DHT22;6214;48.012;7.862;2023-01-08T09:03:56;11.10;99.90
12303;DHT22;6214;48.012;7.862;2023-01-08T09:06:23;11.10;99.90
12303;DHT22;6214;48.012;7.862;2023-01-08T09:08:53;11.10;99.90
12303;DHT22;6214;48.012;7.862;2023-01-08T09:11:20;11.00;99.90
12303;DHT22;6214;48.012;7.862;2023-01-08T09:13:47;11.10;99.90
12303;DHT22;6214;48.012;7.862;2023-01-08T09:16:14;11.10;99.90
12303;DHT22;6214;48.012;7.862;2023-01-08T09:18:41;11.00;99.90
12303;DHT22;6214;48.012;7.862;2023-01-08T09:21:08;11.00;99.90
12303;DHT22;6214;48.012;7.862;2023-01-08T09:23:34;11.00;99.90
12303;DHT22;6214;48.012;7.862;2023-01-08T09:26:03;11.00;99.90
12303;DHT22;6214;48.012;7.862;2023-01-08T09:28:31;11.00;99.90
12303;DHT22;6214;48.012;7.862;2023-01-08T09:31:02;10.90;99.90
12303;DHT22;6214;48.012;7.862;2023-01-08T09:33:30;10.90;99.90
12303;DHT22;6214;48.012;7.862;2023-01-08T09:35:56;10.90;99.90
12303;DHT22;6214;48.012;7.862;2023-01-08T09:38:23;11.00;99.90
12303;DHT22;6214;48.012;7.862;2023-01-08T09:41:01;11.00;99.90
12303;DHT22;6214;48.012;7.862;2023-01-08T09:43:33;10.90;99.90
12303;DHT22;6214;48.012;7.862;2023-01-08T09:46:03;10.90;99.90
12303;DHT22;6214;48.012;7.862;2023-01-08T09:48:35;11.00;99.90
12303;DHT22;6214;48.012;7.862;2023-01-08T09:51:02;11.00;99.90
12303;DHT22;6214;48.012;7.862;2023-01-08T09:53:31;11.10;99.90
12303;DHT22;6214;48.012;7.862;2023-01-08T09:56:00;11.20;99.90
12303;DHT22;6214;48.012;7.862;2023-01-08T09:58:39;11.30;99.90
12303;DHT22;6214;48.012;7.862;2023-01-08T10:01:12;11.30;99.90
12303;DHT22;6214;48.012;7.862;2023-01-08T10:03:44;11.20;99.90
12303;DHT22;6214;48.012;7.862;2023-01-08T10:06:14;11.20;99.90
12303;DHT22;6214;48.012;7.862;2023-01-08T10:08:41;11.30;99.90
12303;DHT22;6214;48.012;7.862;2023-01-08T10:11:09;11.40;99.90
12303;DHT22;6214;48.012;7.862;2023-01-08T10:13:38;11.40;99.90
12303;DHT22;6214;48.012;7.862;2023-01-08T10:16:08;11.50;99.90
12303;DHT22;6214;48.012;7.862;2023-01-08T10:18:36;11.50;99.90
12303;DHT22;6214;48.012;7.862;2023-01-08T10:21:03;11.40;99.90
12303;DHT22;6214;48.012;7.862;2023-01-08T10:23:31;11.40;99.90
12303;DHT22;6214;48.012;7.862;2023-01-08T10:26:01;11.50;99.90
12303;DHT22;6214;48.012;7.862;2023-01-08T10:28:33;11.50;99.90
12303;DHT22;6214;48.012;7.862;2023-01-08T10:31:14;11.70;99.90
12303;DHT22;6214;48.012;7.862;2023-01-08T10:33:48;11.60;99.90
12303;DHT22;6214;48.012;7.862;2023-01-08T10:36:18;11.60;99.90
12303;DHT22;6214;48.012;7.862;2023-01-08T10:38:55;11.60;99.90
12303;DHT22;6214;48.012;7.862;2023-01-08T10:41:23;11.70;99.90
12303;DHT22;6214;48.012;7.862;2023-01-08T10:43:57;11.80;99.90
12303;DHT22;6214;48.012;7.862;2023-01-08T10:46:43;11.80;99.90
12303;DHT22;6214;48.012;7.862;2023-01-08T10:49:38;11.80;99.90
12303;DHT22;6214;48.012;7.862;2023-01-08T10:52:31;11.80;99.90
12303;DHT22;6214;48.012;7.862;2023-01-08T10:55:20;11.80;99.90
12303;DHT22;6214;48.012;7.862;2023-01-08T10:57:58;11.90;99.90
12303;DHT22;6214;48.012;7.862;2023-01-08T11:00:31;11.80;99.90
12303;DHT22;6214;48.012;7.862;2023-01-08T11:03:05;11.80;99.90
12303;DHT22;6214;48.012;7.862;2023-01-08T11:05:34;12.00;99.90
12303;DHT22;6214;48.012;7.862;2023-01-08T11:08:05;12.10;99.90
12303;DHT22;6214;48.012;7.862;2023-01-08T11:10:34;12.10;99.90
12303;DHT22;6214;48.012;7.862;2023-01-08T11:13:04;12.00;99.90
12303;DHT22;6214;48.012;7.862;2023-01-08T11:15:37;12.20;99.90
12303;DHT22;6214;48.012;7.862;2023-01-08T11:18:24;12.10;99.90
12303;DHT22;6214;48.012;7.862;2023-01-08T11:20:56;12.30;99.90
12303;DHT22;6214;48.012;7.862;2023-01-08T11:23:31;12.30;99.90
12303;DHT22;6214;48.012;7.862;2023-01-08T11:26:13;12.30;99.90
12303;DHT22;6214;48.012;7.862;2023-01-08T11:31:20;12.30;99.90
12303;DHT22;6214;48.012;7.862;2023-01-08T11:33:52;12.30;99.90
12303;DHT22;6214;48.012;7.862;2023-01-08T11:36:27;12.30;99.90
12303;DHT22;6214;48.012;7.862;2023-01-08T11:38:55;12.40;99.90
12303;DHT22;6214;48.012;7.862;2023-01-08T11:41:32;12.30;99.90
12303;DHT22;6214;48.012;7.862;2023-01-08T11:47:13;12.20;99.90
12303;DHT22;6214;48.012;7.862;2023-01-08T11:58:06;12.00;99.90
12303;DHT22;6214;48.012;7.862;2023-01-08T12:11:56;12.10;99.90
12303;DHT22;6214;48.012;7.862;2023-01-08T12:14:31;12.00;99.90
12303;DHT22;6214;48.012;7.862;2023-01-08T12:25:33;11.90;99.90
12303;DHT22;6214;48.012;7.862;2023-01-08T12:33:48;11.80;99.90
12303;DHT22;6214;48.012;7.862;2023-01-08T12:36:24;11.80;99.90
12303;DHT22;6214;48.012;7.862;2023-01-08T12:38:59;11.90;99.90
12303;DHT22;6214;48.012;7.862;2023-01-08T12:41:30;12.00;99.90
12303;DHT22;6214;48.012;7.862;2023-01-08T12:44:04;12.00;99.90
12303;DHT22;6214;48.012;7.862;2023-01-08T12:46:36;11.90;99.90
12303;DHT22;6214;48.012;7.862;2023-01-08T12:49:04;11.90;99.90
12303;DHT22;6214;48.012;7.862;2023-01-08T12:52:01;12.00;99.90
12303;DHT22;6214;48.012;7.862;2023-01-08T12:57:43;12.00;99.90
12303;DHT22;6214;48.012;7.862;2023-01-08T13:00:35;11.90;99.90
12303;DHT22;6214;48.012;7.862;2023-01-08T13:03:09;11.80;99.90
12303;DHT22;6214;48.012;7.862;2023-01-08T13:05:37;11.80;99.90
12303;DHT22;6214;48.012;7.862;2023-01-08T13:10:52;11.70;99.90
12303;DHT22;6214;48.012;7.862;2023-01-08T13:13:26;11.70;99.90
12303;DHT22;6214;48.012;7.862;2023-01-08T13:18:37;11.70;99.90
12303;DHT22;6214;48.012;7.862;2023-01-08T13:21:06;11.70;99.90
12303;DHT22;6214;48.012;7.862;2023-01-08T13:23:34;11.70;99.90
12303;DHT22;6214;48.012;7.862;2023-01-08T13:26:04;11.70;99.90
12303;DHT22;6214;48.012;7.862;2023-01-08T13:31:27;11.60;99.90
12303;DHT22;6214;48.012;7.862;2023-01-08T13:33:54;11.60;99.90
12303;DHT22;6214;48.012;7.862;2023-01-08T13:36:26;11.70;99.90
12303;DHT22;6214;48.012;7.862;2023-01-08T13:41:56;11.70;99.90
12303;DHT22;6214;48.012;7.862;2023-01-08T13:44:31;11.80;99.90
12303;DHT22;6214;48.012;7.862;2023-01-08T13:47:21;11.80;99.90
12303;DHT22;6214;48.012;7.862;2023-01-08T13:49:51;11.80;99.90
12303;DHT22;6214;48.012;7.862;2023-01-08T13:54:53;11.80;99.90
12303;DHT22;6214;48.012;7.862;2023-01-08T13:57:20;11.80;99.90
12303;DHT22;6214;48.012;7.862;2023-01-08T13:59:55;11.80;99.90
12303;DHT22;6214;48.012;7.862;2023-01-08T14:02:30;11.70;99.90
12303;DHT22;6214;48.012;7.862;2023-01-08T14:05:09;11.60;99.90
12303;DHT22;6214;48.012;7.862;2023-01-08T14:07:38;11.70;99.90
12303;DHT22;6214;48.012;7.862;2023-01-08T14:10:07;11.70;99.90
12303;DHT22;6214;48.012;7.862;2023-01-08T14:12:34;11.60;99.90
12303;DHT22;6214;48.012;7.862;2023-01-08T14:15:01;11.60;99.90
12303;DHT22;6214;48.012;7.862;2023-01-08T14:17:31;11.60;99.90
12303;DHT22;6214;48.012;7.862;2023-01-08T14:19:58;11.60;99.90
12303;DHT22;6214;48.012;7.862;2023-01-08T14:22:31;11.60;99.90
12303;DHT22;6214;48.012;7.862;2023-01-08T14:25:04;11.60;99.90
12303;DHT22;6214;48.012;7.862;2023-01-08T14:27:33;11.60;99.90
12303;DHT22;6214;48.012;7.862;2023-01-08T14:30:00;11.50;99.90
12303;DHT22;6214;48.012;7.862;2023-01-08T14:32:29;11.50;99.90
12303;DHT22;6214;48.012;7.862;2023-01-08T14:34:58;11.40;99.90
12303;DHT22;6214;48.012;7.862;2023-01-08T14:37:25;11.40;99.90
12303;DHT22;6214;48.012;7.862;2023-01-08T14:39:52;11.50;99.90
12303;DHT22;6214;48.012;7.862;2023-01-08T14:42:47;11.60;99.90
12303;DHT22;6214;48.012;7.862;2023-01-08T14:45:26;11.50;99.90
12303;DHT22;6214;48.012;7.862;2023-01-08T14:48:21;11.40;99.90
12303;DHT22;6214;48.012;7.862;2023-01-08T14:51:00;11.40;99.90
12303;DHT22;6214;48.012;7.862;2023-01-08T14:53:34;11.40;99.90
12303;DHT22;6214;48.012;7.862;2023-01-08T14:56:03;11.40;99.90
12303;DHT22;6214;48.012;7.862;2023-01-08T14:58:36;11.50;99.90
12303;DHT22;6214;48.012;7.862;2023-01-08T15:01:07;11.50;99.90
12303;DHT22;6214;48.012;7.862;2023-01-08T15:03:47;11.60;99.90
12303;DHT22;6214;48.012;7.862;2023-01-08T15:06:28;11.60;99.90
12303;DHT22;6214;48.012;7.862;2023-01-08T15:08:56;11.50;99.90
12303;DHT22;6214;48.012;7.862;2023-01-08T15:11:29;11.50;99.90
12303;DHT22;6214;48.012;7.862;2023-01-08T15:13:57;11.60;99.90
12303;DHT22;6214;48.012;7.862;2023-01-08T15:16:37;11.60;99.90
12303;DHT22;6214;48.012;7.862;2023-01-08T15:19:16;11.50;99.90
12303;DHT22;6214;48.012;7.862;2023-01-08T15:21:49;11.50;99.90
12303;DHT22;6214;48.012;7.862;2023-01-08T15:26:58;11.70;99.90
12303;DHT22;6214;48.012;7.862;2023-01-08T15:29:28;11.70;99.90
12303;DHT22;6214;48.012;7.862;2023-01-08T15:32:20;11.70;99.90
12303;DHT22;6214;48.012;7.862;2023-01-08T15:34:47;11.70;99.90
12303;DHT22;6214;48.012;7.862;2023-01-08T15:37:15;11.70;99.90
12303;DHT22;6214;48.012;7.862;2023-01-08T15:39:41;11.80;99.90
12303;DHT22;6214;48.012;7.862;2023-01-08T15:42:26;11.70;99.90
12303;DHT22;6214;48.012;7.862;2023-01-08T15:47:43;11.60;99.90
12303;DHT22;6214;48.012;7.862;2023-01-08T15:50:11;11.60;99.90
12303;DHT22;6214;48.012;7.862;2023-01-08T15:52:43;11.70;99.90
12303;DHT22;6214;48.012;7.862;2023-01-08T15:55:18;11.70;99.90
12303;DHT22;6214;48.012;7.862;2023-01-08T15:57:45;11.80;99.90
12303;DHT22;6214;48.012;7.862;2023-01-08T16:00:13;11.80;99.90
12303;DHT22;6214;48.012;7.862;2023-01-08T16:02:42;11.90;99.90
12303;DHT22;6214;48.012;7.862;2023-01-08T16:05:12;11.90;99.90
12303;DHT22;6214;48.012;7.862;2023-01-08T16:07:39;11.90;99.90
12303;DHT22;6214;48.012;7.862;2023-01-08T16:10:06;11.80;99.90
12303;DHT22;6214;48.012;7.862;2023-01-08T16:12:34;11.80;99.90
12303;DHT22;6214;48.012;7.862;2023-01-08T16:15:01;11.60;99.90
12303;DHT22;6214;48.012;7.862;2023-01-08T16:17:28;11.60;99.90
12303;DHT22;6214;48.012;7.862;2023-01-08T16:19:55;11.70;99.90
12303;DHT22;6214;48.012;7.862;2023-01-08T16:22:22;11.60;99.90
12303;DHT22;6214;48.012;7.862;2023-01-08T16:24:49;11.70;99.90
12303;DHT22;6214;48.012;7.862;2023-01-08T16:27:16;11.60;99.90
12303;DHT22;6214;48.012;7.862;2023-01-08T16:29:43;11.70;99.90
12303;DHT22;6214;48.012;7.862;2023-01-08T16:32:09;11.60;99.90
12303;DHT22;6214;48.012;7.862;2023-01-08T16:34:37;11.50;99.90
12303;DHT22;6214;48.012;7.862;2023-01-08T16:37:03;11.50;99.90
12303;DHT22;6214;48.012;7.862;2023-01-08T16:39:30;11.50;99.90
12303;DHT22;6214;48.012;7.862;2023-01-08T16:41:57;11.60;99.90
12303;DHT22;6214;48.012;7.862;2023-01-08T16:44:25;11.50;99.90
12303;DHT22;6214;48.012;7.862;2023-01-08T16:46:57;11.50;99.90
12303;DHT22;6214;48.012;7.862;2023-01-08T16:49:23;11.40;99.90
12303;DHT22;6214;48.012;7.862;2023-01-08T16:51:50;11.40;99.90
12303;DHT22;6214;48.012;7.862;2023-01-08T16:54:17;11.20;99.90
12303;DHT22;6214;48.012;7.862;2023-01-08T16:56:44;11.20;99.90
12303;DHT22;6214;48.012;7.862;2023-01-08T16:59:11;11.20;99.90
12303;DHT22;6214;48.012;7.862;2023-01-08T17:01:49;11.20;99.90
12303;DHT22;6214;48.012;7.862;2023-01-08T17:04:16;11.10;99.90
12303;DHT22;6214;48.012;7.862;2023-01-08T17:06:43;11.10;99.90
12303;DHT22;6214;48.012;7.862;2023-01-08T17:09:12;11.10;99.90
12303;DHT22;6214;48.012;7.862;2023-01-08T17:11:42;11.00;99.90
12303;DHT22;6214;48.012;7.862;2023-01-08T17:14:08;11.00;99.90
12303;DHT22;6214;48.012;7.862;2023-01-08T17:16:36;11.00;99.90
12303;DHT22;6214;48.012;7.862;2023-01-08T17:19:03;11.00;99.90
12303;DHT22;6214;48.012;7.862;2023-01-08T17:21:29;11.00;99.90
12303;DHT22;6214;48.012;7.862;2023-01-08T17:23:56;11.00;99.90